Time;durP1;ratioP1;P1;durP2;ratioP2;P2;SDS_P1;SDS_P2;PMS_P1;PMS_P2;Temp;Humidity;BMP_temperature;BMP_pressure;BME280_temperature;BME280_humidity;BME280_pressure;Samples;Min_cycle;Max_cycle;Signal;HPM_P1;HPM_P2
2023/06/06 00:00:25;;;;;;;9.68;7.15;;;;;;;11.49;100.00;102002.22;1044013;28;20291;-46
2023/06/06 00:00:57;;;;;;;6.95;6.28;;;;;;;11.45;100.00;101999.94;1040597;28;20646;-45
2023/06/06 00:01:29;;;;;;;10.93;6.20;;;;;;;11.49;100.00;101999.53;1040762;28;20332;-45
2023/06/06 00:02:01;;;;;;;11.48;6.72;;;;;;;11.51;100.00;101998.34;1045350;28;20769;-55
2023/06/06 00:02:32;;;;;;;12.18;7.75;;;;;;;11.50;100.00;101998.53;1044312;28;20301;-55
2023/06/06 00:03:04;;;;;;;12.48;6.70;;;;;;;11.52;100.00;101999.19;1044080;28;20824;-55
2023/06/06 00:03:36;;;;;;;11.55;7.88;;;;;;;11.55;100.00;101998.78;1044538;28;20297;-54
2023/06/06 00:04:08;;;;;;;11.95;7.00;;;;;;;11.54;100.00;101997.16;1043781;28;20310;-53
2023/06/06 00:04:40;;;;;;;12.45;7.32;;;;;;;11.50;100.00;102003.84;1044530;28;20854;-55
2023/06/06 00:05:15;;;;;;;11.38;6.57;;;;;;;11.51;100.00;102009.03;1048596;28;20287;-55
2023/06/06 00:05:48;;;;;;;8.82;7.60;;;;;;;11.47;100.00;102007.75;1041929;28;20635;-54
2023/06/06 00:06:20;;;;;;;8.43;6.43;;;;;;;11.48;100.00;101997.91;1047894;28;20378;-55
2023/06/06 00:06:52;;;;;;;10.68;5.97;;;;;;;11.48;100.00;101997.91;1048361;28;20307;-53
2023/06/06 00:07:24;;;;;;;10.73;8.10;;;;;;;11.45;100.00;101994.59;1048619;28;20298;-55
2023/06/06 00:07:56;;;;;;;10.60;6.70;;;;;;;11.37;100.00;102000.09;1048379;28;20660;-55
2023/06/06 00:08:28;;;;;;;12.73;6.65;;;;;;;11.39;100.00;102006.03;1046253;28;20409;-46
2023/06/06 00:09:00;;;;;;;9.25;6.85;;;;;;;11.41;100.00;101998.69;1045170;28;20735;-45
2023/06/06 00:09:31;;;;;;;11.75;7.07;;;;;;;11.44;100.00;102008.13;1044264;28;20299;-46
2023/06/06 00:10:10;;;;;;;11.55;6.75;;;;;;;11.38;100.00;102009.75;1044107;28;20302;-46
2023/06/06 00:10:41;;;;;;;10.10;6.82;;;;;;;11.34;100.00;102007.66;1044426;28;20314;-47
2023/06/06 00:11:13;;;;;;;10.20;6.65;;;;;;;11.32;100.00;102007.84;1045780;28;20421;-44
2023/06/06 00:11:46;;;;;;;7.25;6.32;;;;;;;11.26;100.00;102005.94;1044560;28;20299;-43
2023/06/06 00:12:19;;;;;;;8.13;6.65;;;;;;;11.29;100.00;102008.22;1045045;28;20299;-51
2023/06/06 00:12:54;;;;;;;10.48;6.30;;;;;;;11.23;100.00;102009.00;1044998;28;20295;-54
2023/06/06 00:13:32;;;;;;;13.35;7.53;;;;;;;11.32;100.00;102005.19;1045248;28;20305;-55
2023/06/06 00:14:04;;;;;;;10.73;7.10;;;;;;;11.31;100.00;102008.88;1044880;28;20287;-55
2023/06/06 00:14:37;;;;;;;12.68;7.05;;;;;;;11.29;100.00;102010.91;1044486;28;20338;-54
2023/06/06 00:15:10;;;;;;;11.38;6.65;;;;;;;11.29;100.00;102004.75;1044152;28;20338;-55
2023/06/06 00:15:44;;;;;;;8.25;7.05;;;;;;;11.31;100.00;102006.19;1044486;28;20291;-55
2023/06/06 00:16:16;;;;;;;11.32;7.10;;;;;;;11.27;100.00;102007.59;1045689;28;20891;-45
2023/06/06 00:16:49;;;;;;;13.85;6.88;;;;;;;11.18;100.00;102003.41;1044515;28;20306;-44
2023/06/06 00:17:22;;;;;;;10.52;7.53;;;;;;;11.27;100.00;102002.25;1044888;28;20303;-54
2023/06/06 00:17:55;;;;;;;8.65;6.40;;;;;;;11.25;100.00;102004.31;1044467;28;20397;-45
2023/06/06 00:18:28;;;;;;;13.43;8.57;;;;;;;11.28;100.00;102008.44;1044212;28;20424;-44
2023/06/06 00:19:08;;;;;;;9.48;7.10;;;;;;;11.32;100.00;102005.19;1045408;28;20288;-55
2023/06/06 00:19:42;;;;;;;8.77;6.50;;;;;;;11.23;100.00;102003.66;1044916;28;20302;-52
2023/06/06 00:20:16;;;;;;;7.93;6.60;;;;;;;11.33;100.00;102011.34;1045320;28;20048;-52
2023/06/06 00:20:48;;;;;;;8.45;6.25;;;;;;;11.33;100.00;102001.50;1044733;28;20303;-54
2023/06/06 00:21:21;;;;;;;9.75;6.53;;;;;;;11.36;100.00;102002.94;1044227;28;20300;-54
2023/06/06 00:21:53;;;;;;;10.73;6.32;;;;;;;11.33;100.00;102006.81;1044601;28;20334;-54
2023/06/06 00:22:25;;;;;;;8.50;6.47;;;;;;;11.27;100.00;102006.78;1044323;28;20392;-55
2023/06/06 00:22:57;;;;;;;12.35;6.95;;;;;;;11.24;100.00;101999.16;1044565;28;20295;-55
2023/06/06 00:23:30;;;;;;;11.43;6.88;;;;;;;11.22;100.00;102002.00;1045589;28;20302;-44
2023/06/06 00:24:02;;;;;;;7.80;6.63;;;;;;;11.23;100.00;102003.66;1044264;28;20306;-46
2023/06/06 00:24:34;;;;;;;12.35;9.40;;;;;;;11.18;100.00;101994.56;1044093;28;20345;-45
2023/06/06 00:25:06;;;;;;;11.95;6.68;;;;;;;11.20;100.00;102006.69;1044233;28;20294;-44
2023/06/06 00:25:38;;;;;;;13.63;7.15;;;;;;;11.22;100.00;102004.66;1041486;28;20296;-54
2023/06/06 00:26:10;;;;;;;13.18;7.40;;;;;;;11.14;100.00;102002.13;1040735;28;20367;-55
2023/06/06 00:26:45;;;;;;;12.70;7.32;;;;;;;11.14;100.00;101996.81;1040332;28;20292;-54
2023/06/06 00:27:20;;;;;;;12.90;7.50;;;;;;;11.18;100.00;101998.06;1041062;28;20349;-54
2023/06/06 00:27:53;;;;;;;10.00;6.85;;;;;;;11.19;100.00;101999.72;1040384;28;20312;-45
2023/06/06 00:28:24;;;;;;;8.80;5.97;;;;;;;11.18;100.00;101995.41;1041249;28;20300;-44
2023/06/06 00:28:56;;;;;;;8.77;6.88;;;;;;;11.14;100.00;101991.47;1043686;28;20318;-45
2023/06/06 00:29:28;;;;;;;10.98;6.68;;;;;;;11.11;100.00;101995.34;1043979;28;20291;-45
2023/06/06 00:30:01;;;;;;;8.25;6.50;;;;;;;11.10;100.00;101996.34;1044537;28;20283;-45
2023/06/06 00:30:32;;;;;;;9.43;7.50;;;;;;;11.04;100.00;101996.31;1043894;28;20306;-45
2023/06/06 00:31:04;;;;;;;9.32;7.43;;;;;;;11.05;100.00;101993.44;1044010;28;20804;-44
2023/06/06 00:31:36;;;;;;;11.32;7.47;;;;;;;11.06;100.00;101995.09;1044150;28;20350;-44
2023/06/06 00:32:10;;;;;;;13.90;7.80;;;;;;;11.04;100.00;101990.97;1040450;28;20681;-44
2023/06/06 00:32:42;;;;;;;10.90;7.22;;;;;;;11.03;100.00;101989.31;1043782;28;20378;-45
2023/06/06 00:33:14;;;;;;;10.85;6.93;;;;;;;11.06;100.00;101988.94;1035913;28;20366;-47
2023/06/06 00:33:46;;;;;;;11.60;7.00;;;;;;;11.02;100.00;101993.84;1036617;28;20703;-46
2023/06/06 00:34:19;;;;;;;9.63;7.88;;;;;;;11.04;100.00;101994.47;1039472;28;20308;-45
2023/06/06 00:34:50;;;;;;;11.75;6.68;;;;;;;11.01;100.00;101992.19;1040783;28;20296;-44
2023/06/06 00:35:22;;;;;;;13.13;7.78;;;;;;;11.09;100.00;101988.56;1044508;28;20303;-47
2023/06/06 00:35:54;;;;;;;13.23;6.80;;;;;;;11.05;100.00;101992.63;1044634;28;20425;-46
2023/06/06 00:36:25;;;;;;;11.68;7.07;;;;;;;11.03;100.00;101994.66;1044105;28;20361;-45
2023/06/06 00:36:58;;;;;;;9.80;6.60;;;;;;;11.04;100.00;101990.97;1044924;28;20381;-57
2023/06/06 00:37:29;;;;;;;9.20;6.63;;;;;;;11.07;100.00;101987.91;1044677;28;20287;-50
2023/06/06 00:38:01;;;;;;;13.18;7.35;;;;;;;10.99;100.00;101993.41;1044305;28;20869;-45
2023/06/06 00:38:33;;;;;;;8.63;6.20;;;;;;;10.92;100.00;101989.81;1044202;28;20302;-47
2023/06/06 00:39:05;;;;;;;9.23;7.38;;;;;;;10.96;100.00;101988.44;1043802;28;20661;-49
2023/06/06 00:39:38;;;;;;;8.93;7.97;;;;;;;10.99;100.00;101990.72;1043758;28;20394;-45
2023/06/06 00:40:10;;;;;;;10.13;6.97;;;;;;;10.95;100.00;101987.59;1043746;28;20291;-48
2023/06/06 00:40:42;;;;;;;12.18;8.15;;;;;;;10.92;100.00;101982.63;1044159;28;20322;-49
2023/06/06 00:41:14;;;;;;;12.30;7.10;;;;;;;10.89;100.00;101988.34;1043975;28;20331;-56
2023/06/06 00:41:47;;;;;;;12.20;6.63;;;;;;;10.89;100.00;101982.19;1044658;28;20296;-46
2023/06/06 00:42:19;;;;;;;15.25;8.43;;;;;;;10.88;100.00;101991.22;1040187;28;20308;-49
2023/06/06 00:42:51;;;;;;;8.65;6.88;;;;;;;10.92;100.00;101979.16;1040589;28;20299;-50
2023/06/06 00:43:23;;;;;;;16.15;9.38;;;;;;;10.89;100.00;101982.19;1043682;28;20805;-46
2023/06/06 00:43:55;;;;;;;9.85;6.57;;;;;;;10.86;100.00;101983.41;1040598;28;20362;-46
2023/06/06 00:44:26;;;;;;;13.52;7.57;;;;;;;10.89;100.00;101982.19;1044196;28;20657;-45
2023/06/06 00:44:58;;;;;;;9.98;7.13;;;;;;;10.83;100.00;101979.28;1044180;28;20370;-46
2023/06/06 00:45:30;;;;;;;8.55;5.93;;;;;;;10.83;100.00;101989.94;1045561;28;20298;-47
2023/06/06 00:46:02;;;;;;;14.30;7.57;;;;;;;10.89;100.00;101984.88;1044090;28;20303;-47
2023/06/06 00:46:34;;;;;;;10.13;6.82;;;;;;;10.87;100.00;101978.91;1040016;28;20327;-46
2023/06/06 00:47:06;;;;;;;12.88;7.85;;;;;;;10.87;100.00;101984.22;1040983;28;20907;-54
2023/06/06 00:47:38;;;;;;;9.13;6.95;;;;;;;10.88;100.00;101981.38;1040523;28;20304;-55
2023/06/06 00:48:10;;;;;;;8.85;7.28;;;;;;;10.93;100.00;101986.13;1040486;28;20299;-54
2023/06/06 00:48:42;;;;;;;9.88;8.05;;;;;;;10.87;100.00;101986.91;1040021;28;20288;-55
2023/06/06 00:49:16;;;;;;;10.73;7.30;;;;;;;10.88;100.00;101988.53;1039880;28;20311;-56
2023/06/06 00:49:48;;;;;;;11.23;7.10;;;;;;;10.92;100.00;101984.47;1038584;28;20299;-56
2023/06/06 00:50:23;;;;;;;9.77;7.70;;;;;;;10.93;100.00;101980.81;1040383;28;21666;-56
2023/06/06 00:50:55;;;;;;;9.57;7.15;;;;;;;10.89;100.00;101984.88;1039689;28;20300;-55
2023/06/06 00:51:27;;;;;;;10.25;8.13;;;;;;;10.94;100.00;101985.13;1040814;28;20296;-56
2023/06/06 00:52:00;;;;;;;11.35;7.57;;;;;;;10.91;100.00;101981.00;1043377;28;20811;-55
2023/06/06 00:52:32;;;;;;;11.95;7.45;;;;;;;10.89;100.00;101976.88;1036131;28;20845;-56
2023/06/06 00:53:04;;;;;;;9.95;7.30;;;;;;;10.90;100.00;101990.00;1040010;28;20311;-53
2023/06/06 00:53:36;;;;;;;13.80;7.53;;;;;;;10.93;100.00;101983.47;1038927;28;20316;-56
2023/06/06 00:54:13;;;;;;;11.63;7.70;;;;;;;10.95;100.00;101984.91;1040259;28;20775;-56
2023/06/06 00:54:44;;;;;;;14.32;8.98;;;;;;;10.94;100.00;101982.44;1040822;28;20295;-56
2023/06/06 00:55:17;;;;;;;9.82;7.07;;;;;;;10.90;100.00;101983.84;1043919;28;20742;-56
2023/06/06 00:55:49;;;;;;;12.10;7.38;;;;;;;10.89;100.00;101983.03;1044658;28;20395;-49
2023/06/06 00:56:29;;;;;;;11.02;7.63;;;;;;;10.90;100.00;101981.19;1042305;28;20677;-56
2023/06/06 00:57:02;;;;;;;10.32;6.18;;;;;;;10.89;100.00;101980.34;1045157;28;20307;-49
2023/06/06 00:57:35;;;;;;;12.50;6.57;;;;;;;10.91;100.00;101980.16;1043776;28;20357;-49
2023/06/06 00:58:09;;;;;;;11.63;7.90;;;;;;;10.91;100.00;101980.16;1039872;28;20284;-51
2023/06/06 00:58:41;;;;;;;13.05;7.60;;;;;;;10.88;100.00;101975.22;1037650;28;20332;-45
2023/06/06 00:59:15;;;;;;;11.48;7.28;;;;;;;10.90;100.00;101981.19;1035959;28;20312;-52
2023/06/06 00:59:47;;;;;;;9.27;7.22;;;;;;;10.89;100.00;101977.69;1037542;28;20695;-56
2023/06/06 01:00:19;;;;;;;11.57;7.75;;;;;;;10.88;100.00;101980.56;1037844;28;20312;-56
2023/06/06 01:00:51;;;;;;;8.68;7.25;;;;;;;10.84;100.00;101980.09;1040859;28;20303;-56
2023/06/06 01:01:33;;;;;;;14.13;7.85;;;;;;;10.83;100.00;101981.94;1043711;28;20823;-55
2023/06/06 01:02:09;;;;;;;12.25;8.18;;;;;;;10.86;100.00;101978.06;1046828;28;20295;-55
2023/06/06 01:02:43;;;;;;;10.50;7.53;;;;;;;10.88;100.00;101980.56;1048407;28;20294;-56
2023/06/06 01:03:15;;;;;;;10.57;6.88;;;;;;;10.81;100.00;101981.31;1048148;28;20826;-56
2023/06/06 01:03:47;;;;;;;11.32;7.25;;;;;;;10.83;100.00;101981.94;1044669;28;20310;-55
2023/06/06 01:04:20;;;;;;;10.90;7.25;;;;;;;10.87;100.00;101978.91;1043264;28;20327;-57
2023/06/06 01:04:52;;;;;;;11.82;6.85;;;;;;;10.82;100.00;101982.97;1043072;28;20295;-56
2023/06/06 01:05:24;;;;;;;12.90;7.50;;;;;;;10.83;100.00;101976.63;1043882;28;20301;-56
2023/06/06 01:05:56;;;;;;;10.32;7.47;;;;;;;10.89;100.00;101976.88;1043499;28;20886;-56
2023/06/06 01:06:33;;;;;;;9.90;7.00;;;;;;;10.88;100.00;101986.72;1043485;28;20347;-55
2023/06/06 01:07:06;;;;;;;9.88;6.93;;;;;;;10.87;100.00;101981.56;1043232;28;20288;-57
2023/06/06 01:07:38;;;;;;;11.65;7.45;;;;;;;10.87;100.00;101984.22;1043780;28;20317;-56
2023/06/06 01:08:12;;;;;;;12.70;7.03;;;;;;;10.86;100.00;101982.59;1043753;28;20300;-56
2023/06/06 01:08:43;;;;;;;9.38;7.28;;;;;;;10.83;100.00;101973.13;1043653;28;20902;-55
2023/06/06 01:09:16;;;;;;;12.98;7.50;;;;;;;10.80;100.00;101984.19;1039082;28;20366;-55
2023/06/06 01:09:47;;;;;;;11.88;7.70;;;;;;;10.83;100.00;101978.47;1035230;28;20300;-56
2023/06/06 01:10:21;;;;;;;11.43;7.72;;;;;;;10.87;100.00;101978.91;1039813;28;20304;-56
2023/06/06 01:11:00;;;;;;;11.90;7.90;;;;;;;10.82;100.00;101980.31;1044273;28;20307;-56
2023/06/06 01:11:41;;;;;;;12.90;9.13;;;;;;;10.81;100.00;101981.31;1049934;28;20362;-56
2023/06/06 01:12:35;;;;;;;10.68;7.72;;;;;;;10.79;100.00;101977.19;1046505;28;20406;-56
2023/06/06 01:13:18;;;;;;;13.18;6.72;;;;;;;10.78;100.00;101976.38;1044434;28;20036;-49
2023/06/06 01:14:11;;;;;;;9.57;7.50;;;;;;;10.79;100.00;101980.69;1043579;28;20335;-47
2023/06/06 01:14:56;;;;;;;14.20;6.68;;;;;;;10.73;100.00;101984.13;1043988;28;20648;-45
2023/06/06 01:15:34;;;;;;;11.02;6.68;;;;;;;10.78;100.00;101980.88;1044228;28;20799;-45
2023/06/06 01:16:09;;;;;;;10.77;6.35;;;;;;;10.79;100.00;101993.19;1043505;28;20296;-48
2023/06/06 01:16:42;;;;;;;12.85;7.13;;;;;;;10.76;100.00;101988.25;1045056;28;20887;-56
2023/06/06 01:17:18;;;;;;;9.07;7.30;;;;;;;10.69;100.00;101982.84;1044421;28;20306;-56
2023/06/06 01:17:50;;;;;;;12.63;8.15;;;;;;;10.71;100.00;101980.81;1043887;28;20302;-56
2023/06/06 01:18:22;;;;;;;8.35;6.38;;;;;;;10.71;100.00;101985.31;1040454;28;20312;-56
2023/06/06 01:18:56;;;;;;;14.45;7.55;;;;;;;10.74;100.00;101984.94;1041855;28;20298;-57
2023/06/06 01:19:29;;;;;;;9.90;7.40;;;;;;;10.76;100.00;101978.41;1039680;28;20296;-56
2023/06/06 01:20:04;;;;;;;12.25;6.47;;;;;;;10.74;100.00;101987.59;1039413;28;20339;-57
2023/06/06 01:20:36;;;;;;;12.43;7.43;;;;;;;10.70;100.00;101981.84;1036953;28;20423;-55
2023/06/06 01:21:10;;;;;;;9.43;6.95;;;;;;;10.72;100.00;101986.97;1040906;28;20319;-55
2023/06/06 01:21:44;;;;;;;11.18;6.97;;;;;;;10.72;100.00;101981.63;1043792;28;20360;-56
2023/06/06 01:22:17;;;;;;;12.15;8.18;;;;;;;10.72;100.00;101982.47;1039110;28;20307;-55
2023/06/06 01:22:49;;;;;;;10.30;7.38;;;;;;;10.72;100.00;101984.31;1035270;28;20324;-56
2023/06/06 01:23:21;;;;;;;13.48;6.82;;;;;;;10.70;100.00;101984.50;1036437;28;20387;-56
2023/06/06 01:23:56;;;;;;;9.98;7.30;;;;;;;10.77;100.00;101979.22;1039617;28;20998;-56
2023/06/06 01:24:28;;;;;;;13.60;7.05;;;;;;;10.67;100.00;101979.50;1041751;28;20299;-55
2023/06/06 01:25:02;;;;;;;14.20;9.52;;;;;;;10.68;100.00;101981.19;1039406;28;20454;-55
2023/06/06 01:25:35;;;;;;;9.43;7.22;;;;;;;10.70;100.00;101979.16;1039469;28;20296;-55
2023/06/06 01:26:07;;;;;;;10.27;7.05;;;;;;;10.65;100.00;101981.53;1037453;28;20735;-56
2023/06/06 01:26:39;;;;;;;9.75;6.78;;;;;;;10.66;100.00;101977.88;1041062;28;20300;-56
2023/06/06 01:27:10;;;;;;;8.88;6.43;;;;;;;10.65;100.00;101981.53;1047972;28;20295;-50
2023/06/06 01:27:45;;;;;;;10.38;7.75;;;;;;;10.69;100.00;101987.34;1048249;28;20309;-49
2023/06/06 01:28:17;;;;;;;9.70;7.65;;;;;;;10.68;100.00;101983.84;1048488;28;20286;-47
2023/06/06 01:28:49;;;;;;;8.38;6.13;;;;;;;10.67;100.00;101982.19;1044543;28;20319;-47
2023/06/06 01:29:21;;;;;;;10.30;8.20;;;;;;;10.70;100.00;101984.50;1043555;28;20311;-46
2023/06/06 01:29:54;;;;;;;11.95;7.55;;;;;;;10.71;100.00;101980.81;1043676;28;20296;-46
2023/06/06 01:30:26;;;;;;;7.65;6.55;;;;;;;10.71;100.00;101985.31;1045417;28;20291;-46
2023/06/06 01:30:59;;;;;;;9.32;7.47;;;;;;;10.69;100.00;101987.34;1048015;28;20346;-46
2023/06/06 01:31:36;;;;;;;12.38;8.18;;;;;;;10.64;100.00;101979.91;1043205;28;20831;-47
2023/06/06 01:32:13;;;;;;;10.20;6.93;;;;;;;10.64;100.00;101982.56;1036541;28;20308;-49
2023/06/06 01:32:51;;;;;;;13.68;8.93;;;;;;;10.61;100.00;101985.59;1038034;28;20307;-46
2023/06/06 01:33:38;;;;;;;8.57;6.72;;;;;;;10.63;100.00;101983.56;1036001;28;20395;-44
2023/06/06 01:34:20;;;;;;;9.70;7.47;;;;;;;10.66;100.00;101983.19;1040629;28;20419;-56
2023/06/06 01:35:05;;;;;;;11.43;7.00;;;;;;;10.69;100.00;101977.50;1040756;28;20311;-52
2023/06/06 01:35:36;;;;;;;11.40;6.43;;;;;;;10.65;100.00;101981.53;1039732;28;20292;-56
2023/06/06 01:36:23;;;;;;;13.60;8.20;;;;;;;10.65;100.00;101981.53;1043442;28;20445;-55
2023/06/06 01:37:11;;;;;;;8.73;6.82;;;;;;;10.63;100.00;101985.41;1039455;28;20378;-55
2023/06/06 01:38:10;;;;;;;10.23;7.50;;;;;;;10.66;100.00;101982.38;1039999;28;20383;-53
2023/06/06 01:38:45;;;;;;;10.50;6.35;;;;;;;10.60;100.00;101983.13;1040052;28;20293;-46
2023/06/06 01:39:21;;;;;;;12.88;6.93;;;;;;;10.62;100.00;101987.25;1044134;28;20287;-45
2023/06/06 01:39:55;;;;;;;10.13;7.07;;;;;;;10.62;100.00;101975.78;1039920;28;20347;-46
2023/06/06 01:40:29;;;;;;;13.20;7.68;;;;;;;10.61;100.00;101980.28;1039777;28;20326;-49
2023/06/06 01:41:03;;;;;;;13.30;7.93;;;;;;;10.61;100.00;101984.78;1039802;28;20809;-46
2023/06/06 01:41:36;;;;;;;12.50;7.22;;;;;;;10.57;100.00;101984.34;1031402;28;20297;-48
2023/06/06 01:42:09;;;;;;;14.45;7.35;;;;;;;10.58;100.00;101978.00;1032796;28;20822;-47
2023/06/06 01:42:44;;;;;;;9.43;6.85;;;;;;;10.59;100.00;101984.97;1031224;28;20804;-45
2023/06/06 01:43:16;;;;;;;13.38;7.63;;;;;;;10.60;100.00;101977.81;1035328;28;20448;-46
2023/06/06 01:43:50;;;;;;;9.07;7.43;;;;;;;10.58;100.00;101980.66;1035584;28;20297;-48
2023/06/06 01:44:23;;;;;;;12.73;6.65;;;;;;;10.55;100.00;101988.19;1036968;28;20307;-44
2023/06/06 01:44:56;;;;;;;8.95;7.35;;;;;;;10.57;100.00;101981.66;1040489;28;20387;-47
2023/06/06 01:45:28;;;;;;;9.60;6.78;;;;;;;10.53;100.00;101985.72;1044125;28;21056;-46
2023/06/06 01:46:01;;;;;;;10.30;7.10;;;;;;;10.52;100.00;101982.25;1040659;28;20379;-48
2023/06/06 01:46:33;;;;;;;9.63;7.60;;;;;;;10.55;100.00;101981.03;1039848;28;20299;-46
2023/06/06 01:47:05;;;;;;;9.93;7.13;;;;;;;10.54;100.00;101976.72;1035683;28;20304;-47
2023/06/06 01:47:38;;;;;;;11.57;7.88;;;;;;;10.54;100.00;101984.72;1032712;28;20761;-45
2023/06/06 01:48:10;;;;;;;9.73;7.10;;;;;;;10.55;100.00;101986.38;1030967;28;20341;-47
2023/06/06 01:48:42;;;;;;;13.25;7.85;;;;;;;10.57;100.00;101987.00;1035394;28;20297;-49
2023/06/06 01:49:15;;;;;;;10.00;6.72;;;;;;;10.58;100.00;101996.63;1036387;28;20328;-56
2023/06/06 01:49:47;;;;;;;9.38;6.75;;;;;;;10.60;100.00;101989.28;1037652;28;20300;-56
2023/06/06 01:50:19;;;;;;;8.45;6.78;;;;;;;10.60;100.00;101991.94;1039863;28;20308;-56
2023/06/06 01:50:51;;;;;;;11.35;7.50;;;;;;;10.58;100.00;101993.16;1035756;28;20375;-56
2023/06/06 01:51:27;;;;;;;14.07;7.75;;;;;;;10.58;100.00;101991.31;1035789;28;20297;-56
2023/06/06 01:51:58;;;;;;;10.75;7.28;;;;;;;10.57;100.00;101983.50;1036593;28;20370;-56
2023/06/06 01:52:34;;;;;;;11.68;7.20;;;;;;;10.57;100.00;101987.00;1039948;28;20851;-56
2023/06/06 01:53:05;;;;;;;10.15;7.68;;;;;;;10.62;100.00;101989.91;1040254;28;20295;-56
2023/06/06 01:53:37;;;;;;;11.00;8.00;;;;;;;10.61;100.00;101988.28;1040102;28;20288;-55
2023/06/06 01:54:08;;;;;;;9.48;7.18;;;;;;;10.53;100.00;101993.72;1039910;28;20396;-55
2023/06/06 01:54:40;;;;;;;8.15;6.75;;;;;;;10.57;100.00;101986.16;1041362;28;20292;-52
2023/06/06 01:55:12;;;;;;;16.38;8.35;;;;;;;10.55;100.00;101982.88;1044318;28;20295;-55
2023/06/06 01:55:44;;;;;;;11.48;6.78;;;;;;;10.54;100.00;101987.38;1041664;28;20657;-56
2023/06/06 01:56:16;;;;;;;11.27;7.47;;;;;;;10.55;100.00;101978.38;1043563;28;20398;-56
2023/06/06 01:56:48;;;;;;;11.55;7.88;;;;;;;10.58;100.00;101983.31;1043631;28;20692;-56
2023/06/06 01:57:20;;;;;;;10.07;7.63;;;;;;;10.58;100.00;101985.16;1043928;28;20327;-56
2023/06/06 01:57:52;;;;;;;10.45;8.38;;;;;;;10.57;100.00;101979.00;1043832;28;20373;-56
2023/06/06 01:58:24;;;;;;;14.50;8.10;;;;;;;10.60;100.00;101983.13;1039686;28;20300;-56
2023/06/06 01:58:56;;;;;;;9.40;7.65;;;;;;;10.60;100.00;101983.97;1039857;28;20292;-54
2023/06/06 01:59:27;;;;;;;16.30;8.32;;;;;;;10.58;100.00;101985.97;1032117;28;20795;-56
2023/06/06 02:00:00;;;;;;;9.68;7.00;;;;;;;10.52;100.00;101986.75;1040743;28;20359;-56
2023/06/06 02:00:33;;;;;;;10.15;7.22;;;;;;;10.46;100.00;101988.31;1039410;28;20339;-57
2023/06/06 02:01:06;;;;;;;11.52;7.13;;;;;;;10.47;100.00;101994.47;1037127;28;20427;-55
2023/06/06 02:01:37;;;;;;;8.50;6.95;;;;;;;10.46;100.00;101990.16;1042199;28;20409;-56
2023/06/06 02:02:09;;;;;;;11.52;8.00;;;;;;;10.44;100.00;101984.19;1040193;28;20319;-56
2023/06/06 02:02:42;;;;;;;11.77;8.15;;;;;;;10.47;100.00;101983.81;1043607;28;20306;-53
2023/06/06 02:03:14;;;;;;;9.60;6.95;;;;;;;10.50;100.00;101986.09;1043910;28;20308;-56
2023/06/06 02:03:45;;;;;;;10.70;7.38;;;;;;;10.48;100.00;101980.97;1044166;28;20319;-56
2023/06/06 02:04:17;;;;;;;12.15;8.10;;;;;;;10.43;100.00;101987.88;1044164;28;20299;-54
2023/06/06 02:04:49;;;;;;;13.77;7.88;;;;;;;10.42;100.00;101981.72;1043758;28;20805;-55
2023/06/06 02:05:21;;;;;;;14.75;9.70;;;;;;;10.44;100.00;101987.69;1043382;28;20334;-53
2023/06/06 02:05:53;;;;;;;14.32;6.60;;;;;;;10.46;100.00;101976.84;1043656;28;20298;-56
2023/06/06 02:06:25;;;;;;;8.18;7.22;;;;;;;10.42;100.00;101981.72;1043804;28;20306;-55
2023/06/06 02:06:57;;;;;;;12.82;8.55;;;;;;;10.45;100.00;101984.00;1044202;28;20287;-51
2023/06/06 02:07:30;;;;;;;10.63;7.63;;;;;;;10.42;100.00;101981.72;1040120;28;20300;-46
2023/06/06 02:08:03;;;;;;;9.82;8.10;;;;;;;10.40;100.00;101982.91;1043888;28;20298;-44
2023/06/06 02:08:35;;;;;;;11.02;7.10;;;;;;;10.40;100.00;101986.38;1043288;28;20314;-45
2023/06/06 02:09:10;;;;;;;10.77;7.93;;;;;;;10.35;100.00;101982.63;1043800;28;20330;-46
2023/06/06 02:09:43;;;;;;;9.30;7.18;;;;;;;10.32;100.00;101977.69;1044500;28;20681;-56
2023/06/06 02:10:15;;;;;;;10.93;8.85;;;;;;;10.28;100.00;101981.72;1039555;28;20304;-47
2023/06/06 02:10:47;;;;;;;16.60;9.45;;;;;;;10.31;100.00;101986.69;1039795;28;20651;-45
2023/06/06 02:11:18;;;;;;;9.55;7.85;;;;;;;10.35;100.00;101986.13;1043487;28;20321;-50
2023/06/06 02:11:50;;;;;;;10.80;8.05;;;;;;;10.33;100.00;101988.16;1041301;28;20292;-48
2023/06/06 02:12:21;;;;;;;12.52;8.13;;;;;;;10.32;100.00;101977.69;1043899;28;20329;-47
2023/06/06 02:12:53;;;;;;;12.73;8.82;;;;;;;10.34;100.00;101978.31;1043634;28;20337;-45
2023/06/06 02:13:28;;;;;;;10.40;7.25;;;;;;;10.33;100.00;101974.00;1044849;28;20295;-52
2023/06/06 02:14:01;;;;;;;9.63;7.80;;;;;;;10.25;100.00;101982.09;1044255;28;20303;-46
2023/06/06 02:14:34;;;;;;;13.57;8.70;;;;;;;10.26;100.00;101978.44;1044178;28;20306;-48
2023/06/06 02:15:06;;;;;;;9.60;7.03;;;;;;;10.28;100.00;101979.06;1043357;28;20309;-46
2023/06/06 02:15:38;;;;;;;10.02;8.05;;;;;;;10.29;100.00;101976.22;1044047;28;20293;-49
2023/06/06 02:16:13;;;;;;;10.73;8.25;;;;;;;10.32;100.00;101977.69;1044437;28;20314;-54
2023/06/06 02:16:48;;;;;;;10.88;8.63;;;;;;;10.30;100.00;101977.03;1044239;28;20828;-56
2023/06/06 02:17:20;;;;;;;12.93;8.02;;;;;;;10.26;100.00;101976.59;1039742;28;20447;-56
2023/06/06 02:17:56;;;;;;;12.10;7.72;;;;;;;10.26;100.00;101978.44;1039826;28;20292;-56
2023/06/06 02:18:30;;;;;;;10.65;7.65;;;;;;;10.29;100.00;101975.41;1041640;28;20311;-56
2023/06/06 02:19:03;;;;;;;10.32;7.32;;;;;;;10.30;100.00;101977.03;1041123;28;20438;-56
2023/06/06 02:19:35;;;;;;;14.02;7.90;;;;;;;10.23;100.00;101978.81;1043822;28;20295;-56
2023/06/06 02:20:09;;;;;;;9.90;7.22;;;;;;;10.17;100.00;101978.50;1044198;28;20688;-46
2023/06/06 02:20:48;;;;;;;8.75;7.85;;;;;;;10.15;100.00;101975.22;1044607;28;20331;-48
2023/06/06 02:21:19;;;;;;;13.80;8.52;;;;;;;10.20;100.00;101978.16;1043964;28;20040;-45
2023/06/06 02:21:53;;;;;;;9.35;7.40;;;;;;;10.17;100.00;101975.84;1050006;28;20381;-46
2023/06/06 02:22:24;;;;;;;7.80;6.85;;;;;;;10.18;100.00;101977.50;1047639;28;20357;-48
2023/06/06 02:22:56;;;;;;;11.30;7.88;;;;;;;10.24;100.00;101972.47;1043853;28;20300;-50
2023/06/06 02:23:28;;;;;;;8.57;7.25;;;;;;;10.26;100.00;101975.78;1043886;28;20377;-48
2023/06/06 02:23:59;;;;;;;10.98;8.07;;;;;;;10.25;100.00;101980.28;1039780;28;20401;-47
2023/06/06 02:24:33;;;;;;;13.32;6.93;;;;;;;10.25;100.00;101984.78;1043615;28;20302;-49
2023/06/06 02:25:05;;;;;;;11.68;8.77;;;;;;;10.29;100.00;101980.72;1043049;28;20824;-47
2023/06/06 02:25:37;;;;;;;11.35;8.77;;;;;;;10.32;100.00;101983.00;1043469;28;20299;-45
2023/06/06 02:26:10;;;;;;;10.07;7.28;;;;;;;10.23;100.00;101976.97;1043805;28;20299;-48
2023/06/06 02:26:45;;;;;;;12.85;7.80;;;;;;;10.12;100.00;101980.88;1043735;28;20481;-46
2023/06/06 02:27:16;;;;;;;13.98;7.90;;;;;;;10.12;100.00;101980.88;1043531;28;20299;-46
2023/06/06 02:27:48;;;;;;;10.82;7.57;;;;;;;10.16;100.00;101976.03;1043214;28;20303;-44
2023/06/06 02:28:20;;;;;;;8.65;7.60;;;;;;;10.13;100.00;101982.53;1039238;28;20296;-45
2023/06/06 02:28:52;;;;;;;12.68;8.18;;;;;;;10.10;100.00;101982.91;1035386;28;20305;-46
2023/06/06 02:29:24;;;;;;;11.73;7.95;;;;;;;10.23;100.00;101979.63;1035345;28;20312;-47
2023/06/06 02:29:56;;;;;;;15.55;8.60;;;;;;;10.21;100.00;101979.81;1039899;28;20342;-45
2023/06/06 02:30:28;;;;;;;11.05;8.25;;;;;;;10.21;100.00;101974.50;1043773;28;20291;-48
2023/06/06 02:31:00;;;;;;;10.45;7.22;;;;;;;10.19;100.00;101975.66;1044291;28;20441;-47
2023/06/06 02:31:32;;;;;;;10.75;7.78;;;;;;;10.13;100.00;101976.38;1043557;28;20298;-45
2023/06/06 02:32:05;;;;;;;12.18;7.68;;;;;;;10.17;100.00;101981.19;1043813;28;20307;-46
2023/06/06 02:32:37;;;;;;;13.90;8.23;;;;;;;10.14;100.00;101978.06;1035737;28;20837;-48